Time;durP1;ratioP1;P1;durP2;ratioP2;P2;SDS_P1;SDS_P2;PMS_P1;PMS_P2;Temp;Humidity;BMP_temperature;BMP_pressure;BME280_temperature;BME280_humidity;BME280_pressure;Samples;Min_cycle;Max_cycle;Signal;HPM_P1;HPM_P2
2023/01/29 00:02:40;;;;;;;20.15;8.23;;;7.40;52.50;;;;;;6122692;29;20024;-67
2023/01/29 00:05:41;;;;;;;19.85;9.05;;;7.40;52.50;;;;;;6121029;29;20055;-65
2023/01/29 00:08:42;;;;;;;22.30;8.75;;;7.40;52.40;;;;;;6142315;28;20039;-65
2023/01/29 00:11:43;;;;;;;25.42;10.27;;;7.40;52.40;;;;;;6146231;28;20035;-65
2023/01/29 00:14:44;;;;;;;28.70;10.55;;;7.50;52.50;;;;;;6128687;29;20048;-65
2023/01/29 00:17:45;;;;;;;18.05;8.68;;;7.50;52.40;;;;;;6122591;29;20040;-66
2023/01/29 00:20:46;;;;;;;25.10;9.77;;;7.50;52.40;;;;;;6138236;29;20118;-66
2023/01/29 00:23:48;;;;;;;19.20;8.60;;;7.50;52.30;;;;;;6149330;28;20028;-65
2023/01/29 00:26:49;;;;;;;26.17;9.93;;;7.50;52.40;;;;;;6150490;28;20046;-65
2023/01/29 00:30:08;;;;;;;23.27;8.57;;;7.50;52.40;;;;;;6149329;28;20031;-66
2023/01/29 00:33:10;;;;;;;21.05;8.68;;;7.50;52.40;;;;;;6149052;29;20035;-66
2023/01/29 00:36:13;;;;;;;24.70;10.50;;;7.50;52.40;;;;;;6149198;28;20041;-67
2023/01/29 00:39:14;;;;;;;24.48;9.45;;;7.50;52.40;;;;;;6149991;28;20396;-66
2023/01/29 00:45:37;;;;;;;25.23;10.02;;;7.60;52.60;;;;;;6150153;28;20070;-64
2023/01/29 00:48:39;;;;;;;20.33;9.65;;;7.60;52.70;;;;;;6188368;28;20087;-67
2023/01/29 00:51:40;;;;;;;19.75;9.15;;;7.60;52.70;;;;;;6147187;28;20024;-65
2023/01/29 00:54:41;;;;;;;19.58;8.75;;;7.60;52.80;;;;;;6125173;28;20036;-65
2023/01/29 00:57:42;;;;;;;24.60;10.02;;;7.60;52.90;;;;;;6126111;29;20035;-68
2023/01/29 01:00:43;;;;;;;25.10;9.63;;;7.50;52.90;;;;;;6126235;29;20031;-67
2023/01/29 01:03:45;;;;;;;31.35;9.40;;;7.50;52.90;;;;;;6146351;28;20391;-65
2023/01/29 01:06:46;;;;;;;21.67;9.25;;;7.50;53.00;;;;;;6155374;28;20027;-66
2023/01/29 01:13:07;;;;;;;24.65;9.43;;;7.50;53.00;;;;;;6133427;29;20069;-66
2023/01/29 01:16:13;;;;;;;24.05;9.27;;;7.50;53.10;;;;;;6124465;28;20035;-66
2023/01/29 01:19:15;;;;;;;22.95;8.30;;;7.50;53.10;;;;;;6124232;29;20035;-67
2023/01/29 01:22:16;;;;;;;23.48;9.25;;;7.50;53.10;;;;;;6124834;29;20046;-66
2023/01/29 01:25:18;;;;;;;27.38;10.63;;;7.40;53.10;;;;;;6124238;28;20081;-65
2023/01/29 01:28:18;;;;;;;26.15;9.52;;;7.40;53.20;;;;;;6125296;29;20423;-66
2023/01/29 01:31:19;;;;;;;23.52;9.23;;;7.50;53.20;;;;;;6149219;28;20131;-65
2023/01/29 01:34:21;;;;;;;23.83;10.50;;;7.50;53.20;;;;;;6149889;28;20054;-65
2023/01/29 01:37:22;;;;;;;20.15;8.85;;;7.40;53.20;;;;;;6151427;28;20031;-65
2023/01/29 01:40:24;;;;;;;21.30;9.05;;;7.40;53.30;;;;;;6131713;28;20645;-64
2023/01/29 01:43:25;;;;;;;18.33;8.48;;;7.50;53.30;;;;;;6147985;28;20027;-66
2023/01/29 01:46:32;;;;;;;19.75;9.73;;;7.50;53.40;;;;;;6149227;28;20039;-67
2023/01/29 01:49:33;;;;;;;20.08;9.15;;;7.40;53.20;;;;;;6149615;28;20062;-66
2023/01/29 01:52:38;;;;;;;22.00;9.73;;;7.40;53.20;;;;;;6149122;28;20027;-67
2023/01/29 01:55:55;;;;;;;26.25;9.65;;;7.40;53.30;;;;;;6148987;28;20039;-66
2023/01/29 01:58:57;;;;;;;21.23;8.98;;;7.30;53.30;;;;;;6124470;28;20078;-65
2023/01/29 02:01:58;;;;;;;23.38;10.05;;;7.30;53.40;;;;;;6134527;28;20349;-67
2023/01/29 02:11:55;;;;;;;22.85;8.93;;;7.20;53.60;;;;;;6106980;28;20047;-66
2023/01/29 02:14:57;;;;;;;27.00;11.20;;;7.20;53.70;;;;;;6124752;28;20388;-67
2023/01/29 02:17:58;;;;;;;26.95;9.73;;;7.20;53.70;;;;;;6123368;28;20039;-64
2023/01/29 02:21:13;;;;;;;31.15;10.20;;;7.20;53.90;;;;;;6124694;28;20028;-65
2023/01/29 02:24:29;;;;;;;25.25;10.48;;;7.20;54.00;;;;;;6124644;29;20514;-65
2023/01/29 02:28:09;;;;;;;24.58;10.20;;;7.10;54.00;;;;;;6123109;28;20538;-65
2023/01/29 02:31:38;;;;;;;18.98;6.57;;;7.10;54.10;;;;;;6221063;28;20053;-66
2023/01/29 02:38:58;;;;;;;22.42;10.20;;;7.10;54.20;;;;;;6228959;28;20048;-66
2023/01/29 02:42:01;;;;;;;18.20;9.82;;;7.10;54.20;;;;;;6229195;28;20509;-68
2023/01/29 02:45:10;;;;;;;21.08;10.02;;;7.00;54.10;;;;;;6228991;28;20148;-66
2023/01/29 02:48:19;;;;;;;25.05;11.00;;;7.10;54.20;;;;;;6228738;28;20053;-67
2023/01/29 02:51:36;;;;;;;27.45;9.05;;;7.10;54.20;;;;;;6229109;28;20034;-65
2023/01/29 02:55:03;;;;;;;28.05;10.38;;;7.10;54.20;;;;;;6226369;28;20520;-68
2023/01/29 02:58:31;;;;;;;23.35;10.45;;;7.10;54.30;;;;;;6220681;28;20037;-66
2023/01/29 03:01:45;;;;;;;15.23;6.25;;;7.10;54.30;;;;;;6238917;28;20128;-65
2023/01/29 03:04:52;;;;;;;25.92;9.40;;;7.10;54.30;;;;;;6201268;28;20148;-67
2023/01/29 03:07:57;;;;;;;25.65;10.93;;;7.10;54.30;;;;;;6146090;28;20435;-68
2023/01/29 03:11:05;;;;;;;24.00;10.05;;;7.10;54.30;;;;;;6123332;28;20050;-67
2023/01/29 03:14:12;;;;;;;26.45;10.65;;;7.10;54.90;;;;;;6122365;28;20040;-66
2023/01/29 03:17:14;;;;;;;24.70;10.80;;;7.10;54.40;;;;;;6122352;28;20394;-66
2023/01/29 03:20:21;;;;;;;24.55;9.45;;;7.10;54.60;;;;;;6122168;28;20039;-66
2023/01/29 03:33:48;;;;;;;22.15;9.93;;;7.00;54.60;;;;;;6127165;28;20031;-66
2023/01/29 03:36:57;;;;;;;23.45;10.60;;;7.00;54.70;;;;;;6122359;29;20032;-66
2023/01/29 03:39:58;;;;;;;24.52;9.65;;;7.00;54.80;;;;;;6125530;29;20040;-66
2023/01/29 03:43:40;;;;;;;25.73;11.23;;;6.90;54.80;;;;;;6140567;28;20035;-69
2023/01/29 03:46:55;;;;;;;31.42;13.50;;;6.90;54.80;;;;;;6171350;28;20118;-65
2023/01/29 03:50:23;;;;;;;21.33;9.90;;;6.90;54.80;;;;;;6128836;29;20519;-66
2023/01/29 03:53:49;;;;;;;26.25;10.63;;;6.90;54.90;;;;;;6147220;28;20034;-66
2023/01/29 03:57:04;;;;;;;27.42;11.27;;;6.90;54.90;;;;;;6124316;28;20043;-65
2023/01/29 04:00:16;;;;;;;36.47;11.48;;;6.80;55.00;;;;;;6146834;29;20051;-66
2023/01/29 04:03:38;;;;;;;30.80;12.27;;;7.20;55.30;;;;;;6146588;29;20063;-66
2023/01/29 04:06:44;;;;;;;24.00;9.70;;;6.80;55.10;;;;;;6147090;29;20031;-68
2023/01/29 04:10:00;;;;;;;41.92;10.90;;;6.80;55.10;;;;;;6146784;29;20035;-66
2023/01/29 04:13:09;;;;;;;38.40;11.32;;;6.80;55.10;;;;;;6147199;29;20372;-67
2023/01/29 04:16:16;;;;;;;28.85;10.80;;;6.70;55.20;;;;;;6147055;29;20046;-66
2023/01/29 04:19:38;;;;;;;28.00;10.45;;;6.70;55.20;;;;;;6146589;29;20084;-65
2023/01/29 04:22:42;;;;;;;22.27;9.57;;;6.70;55.30;;;;;;6108120;29;20048;-66
2023/01/29 04:25:51;;;;;;;19.40;10.40;;;6.70;55.30;;;;;;6057069;29;20571;-67
2023/01/29 04:29:29;;;;;;;21.55;9.40;;;6.80;55.30;;;;;;6056800;29;20033;-66
2023/01/29 04:33:34;;;;;;;26.73;10.15;;;6.80;55.10;;;;;;6146982;29;20035;-66
2023/01/29 04:37:06;;;;;;;19.38;10.68;;;6.80;55.00;;;;;;6085447;29;20055;-65
2023/01/29 04:40:16;;;;;;;22.95;8.70;;;6.80;54.70;;;;;;6098470;29;20140;-67
2023/01/29 04:43:38;;;;;;;26.88;9.77;;;6.70;54.50;;;;;;6099323;29;20044;-67
2023/01/29 04:47:00;;;;;;;27.42;10.02;;;6.70;54.60;;;;;;6083522;29;20416;-66
2023/01/29 04:50:25;;;;;;;22.80;8.98;;;6.60;54.50;;;;;;6099027;29;20119;-66
2023/01/29 04:53:47;;;;;;;24.65;9.32;;;6.60;54.50;;;;;;6098566;29;20044;-66
2023/01/29 04:57:00;;;;;;;27.70;9.52;;;6.70;54.40;;;;;;6084869;29;20136;-66
2023/01/29 05:00:22;;;;;;;28.25;11.13;;;6.70;54.30;;;;;;6077764;29;20176;-67
2023/01/29 05:03:25;;;;;;;25.67;9.65;;;6.70;54.30;;;;;;6099251;29;20036;-67
2023/01/29 05:06:28;;;;;;;23.80;9.65;;;6.70;54.10;;;;;;6095909;29;20646;-67
2023/01/29 05:09:30;;;;;;;25.98;9.63;;;6.70;54.10;;;;;;6004064;29;20515;-68
2023/01/29 05:12:32;;;;;;;21.45;8.55;;;6.70;53.80;;;;;;6067536;29;20400;-64
2023/01/29 05:15:39;;;;;;;21.98;7.93;;;6.70;53.50;;;;;;6139835;28;20101;-65
2023/01/29 05:18:40;;;;;;;15.45;7.72;;;6.60;54.00;;;;;;6225695;28;20032;-66
2023/01/29 05:21:44;;;;;;;22.17;8.90;;;6.60;53.40;;;;;;6225978;28;20053;-65
2023/01/29 05:24:45;;;;;;;21.88;9.50;;;6.50;53.40;;;;;;6225843;28;20386;-67
2023/01/29 05:31:08;;;;;;;24.38;9.02;;;6.50;53.00;;;;;;6226053;28;20034;-66
2023/01/29 05:34:09;;;;;;;23.80;7.90;;;6.40;53.10;;;;;;6225748;28;20125;-66
2023/01/29 05:37:10;;;;;;;15.10;6.50;;;6.50;53.00;;;;;;6157639;28;20032;-66
2023/01/29 05:40:11;;;;;;;20.23;8.10;;;6.50;52.80;;;;;;6128704;29;20314;-66
2023/01/29 05:43:17;;;;;;;21.88;8.48;;;6.50;52.70;;;;;;6132139;28;20032;-67
2023/01/29 05:46:18;;;;;;;17.83;8.38;;;6.50;52.70;;;;;;6125253;29;20063;-66
2023/01/29 05:49:21;;;;;;;21.35;7.40;;;6.50;52.50;;;;;;6123715;28;20036;-66
2023/01/29 05:52:22;;;;;;;17.42;7.75;;;6.50;52.40;;;;;;6125109;29;20107;-66
2023/01/29 05:55:22;;;;;;;21.55;8.25;;;6.50;52.10;;;;;;6125817;28;20374;-66
2023/01/29 05:58:23;;;;;;;26.42;7.05;;;6.50;52.00;;;;;;6129880;28;20046;-65
2023/01/29 06:01:25;;;;;;;15.63;7.78;;;6.40;51.80;;;;;;6125156;29;20192;-67
2023/01/29 06:04:25;;;;;;;18.08;7.45;;;6.40;51.80;;;;;;6138884;28;20032;-67
2023/01/29 06:07:26;;;;;;;24.65;9.32;;;6.30;51.90;;;;;;6125202;29;20077;-66
2023/01/29 06:10:27;;;;;;;17.98;8.02;;;6.30;51.80;;;;;;6126302;29;20329;-64
2023/01/29 06:13:28;;;;;;;20.67;8.63;;;6.40;51.80;;;;;;6129517;29;20062;-67
2023/01/29 06:16:28;;;;;;;17.17;7.70;;;6.40;51.80;;;;;;6123628;28;20032;-67
2023/01/29 06:19:29;;;;;;;17.92;7.57;;;6.40;51.70;;;;;;6124500;29;20189;-68
2023/01/29 06:22:32;;;;;;;18.38;7.75;;;6.40;51.30;;;;;;6123181;29;20069;-68
2023/01/29 06:25:33;;;;;;;19.35;8.50;;;6.40;51.40;;;;;;6123341;29;20031;-65
2023/01/29 06:28:34;;;;;;;22.13;8.73;;;6.40;51.30;;;;;;6122891;28;20032;-67
2023/01/29 06:31:34;;;;;;;17.08;7.22;;;6.40;51.30;;;;;;6130728;29;20434;-67
2023/01/29 06:34:35;;;;;;;16.83;7.80;;;6.40;51.20;;;;;;6148338;29;20108;-66
2023/01/29 06:37:36;;;;;;;26.67;8.00;;;6.40;51.00;;;;;;6145452;28;20036;-67
2023/01/29 06:40:37;;;;;;;29.65;9.05;;;6.40;51.00;;;;;;6124396;29;20023;-64
2023/01/29 06:43:38;;;;;;;19.30;8.13;;;6.30;51.00;;;;;;6124380;29;20081;-66
2023/01/29 06:46:39;;;;;;;18.98;7.85;;;6.30;51.00;;;;;;6123011;29;20419;-68
2023/01/29 06:49:41;;;;;;;23.08;8.00;;;6.40;51.10;;;;;;6129229;28;20674;-67
2023/01/29 06:52:41;;;;;;;18.13;7.57;;;6.40;51.10;;;;;;6143232;28;20464;-65
2023/01/29 06:55:43;;;;;;;26.95;9.25;;;6.40;51.00;;;;;;6123714;29;20097;-68
2023/01/29 06:58:44;;;;;;;22.17;8.13;;;6.40;51.00;;;;;;6123124;29;20097;-69
2023/01/29 07:01:45;;;;;;;18.55;8.18;;;6.40;50.90;;;;;;6123994;29;20035;-67
2023/01/29 07:04:46;;;;;;;21.35;7.30;;;6.40;51.00;;;;;;6123329;28;20094;-68
2023/01/29 07:07:46;;;;;;;20.40;7.82;;;6.40;50.90;;;;;;6122346;29;20111;-69
2023/01/29 07:10:48;;;;;;;18.90;7.45;;;6.40;50.90;;;;;;6122379;28;20384;-71
2023/01/29 07:13:49;;;;;;;15.65;7.28;;;6.30;50.90;;;;;;6123622;29;20568;-66
2023/01/29 07:16:50;;;;;;;16.65;7.75;;;6.30;51.00;;;;;;6122306;29;20028;-69
2023/01/29 07:19:51;;;;;;;15.85;5.90;;;6.30;50.80;;;;;;6165151;23;20400;-69
2023/01/29 07:22:55;;;;;;;27.27;7.43;;;6.30;50.70;;;;;;6171200;28;20041;-67
2023/01/29 07:25:58;;;;;;;20.05;7.47;;;6.30;50.80;;;;;;6169812;28;20072;-67
2023/01/29 07:28:59;;;;;;;21.08;7.38;;;6.30;50.80;;;;;;6170663;28;20039;-70
2023/01/29 07:32:00;;;;;;;16.05;5.78;;;6.20;50.70;;;;;;6168930;28;20073;-68
2023/01/29 07:35:04;;;;;;;19.23;7.47;;;6.20;50.60;;;;;;6170860;28;20041;-69
2023/01/29 07:38:06;;;;;;;18.98;7.15;;;6.20;50.60;;;;;;6170379;28;20037;-67
2023/01/29 07:41:10;;;;;;;14.82;6.82;;;6.20;50.70;;;;;;6173515;28;20379;-67
2023/01/29 07:44:10;;;;;;;20.63;6.85;;;6.20;50.70;;;;;;6171638;28;20113;-69
2023/01/29 07:47:11;;;;;;;16.92;7.32;;;6.20;50.60;;;;;;6169320;28;20088;-68
2023/01/29 07:50:12;;;;;;;26.23;7.82;;;6.20;50.60;;;;;;6169813;28;20106;-67
2023/01/29 07:53:14;;;;;;;25.55;7.40;;;6.20;50.60;;;;;;6170698;28;20559;-69
2023/01/29 07:56:15;;;;;;;16.67;6.50;;;6.30;50.60;;;;;;6169161;28;20113;-68
2023/01/29 07:59:16;;;;;;;16.52;6.93;;;6.20;50.50;;;;;;6169703;28;20400;-67
2023/01/29 08:02:16;;;;;;;14.00;7.13;;;6.30;50.50;;;;;;6153463;28;20031;-68
2023/01/29 08:05:18;;;;;;;17.48;7.65;;;6.20;50.50;;;;;;6170282;28;20023;-68
2023/01/29 08:08:18;;;;;;;15.32;6.97;;;6.30;50.60;;;;;;6167181;28;20027;-67
2023/01/29 08:11:19;;;;;;;17.08;6.95;;;6.30;50.40;;;;;;6169379;28;20039;-68
2023/01/29 08:14:20;;;;;;;20.27;7.72;;;6.30;50.40;;;;;;6153222;28;20035;-67
2023/01/29 08:17:21;;;;;;;25.40;8.80;;;6.30;50.30;;;;;;6170281;28;20050;-67
2023/01/29 08:20:22;;;;;;;21.42;7.30;;;6.30;50.40;;;;;;6168532;28;20062;-67
2023/01/29 08:23:23;;;;;;;21.27;6.78;;;6.30;50.30;;;;;;6168908;28;20463;-69
2023/01/29 08:26:25;;;;;;;22.00;6.93;;;6.30;50.20;;;;;;6170235;28;20027;-67
2023/01/29 08:29:25;;;;;;;19.90;6.60;;;6.30;50.20;;;;;;6169756;28;20038;-67
2023/01/29 08:32:26;;;;;;;20.27;7.40;;;6.30;50.00;;;;;;6160818;28;20479;-67
2023/01/29 08:35:27;;;;;;;22.25;8.05;;;6.30;50.00;;;;;;6165837;28;20528;-72
2023/01/29 08:38:28;;;;;;;29.42;8.32;;;6.30;50.00;;;;;;6169784;28;20034;-67
2023/01/29 08:41:29;;;;;;;25.77;6.70;;;6.40;50.10;;;;;;6170409;28;20390;-68
2023/01/29 08:44:30;;;;;;;16.80;7.38;;;6.50;49.80;;;;;;6174742;28;20030;-66
2023/01/29 08:47:30;;;;;;;20.95;7.75;;;6.60;49.80;;;;;;6173536;28;20505;-68
2023/01/29 08:50:33;;;;;;;26.27;6.63;;;6.60;49.50;;;;;;6173108;28;20027;-68
2023/01/29 08:53:34;;;;;;;14.95;6.13;;;6.60;49.50;;;;;;6174167;28;20038;-68
2023/01/29 08:56:35;;;;;;;16.25;6.50;;;6.70;49.40;;;;;;6173707;28;20415;-68
2023/01/29 08:59:37;;;;;;;15.55;6.68;;;6.80;49.20;;;;;;6173625;28;20026;-67
2023/01/29 09:02:37;;;;;;;15.50;7.30;;;6.80;49.10;;;;;;6173866;28;20058;-67
2023/01/29 09:05:39;;;;;;;15.68;7.03;;;6.80;48.90;;;;;;6173454;28;20493;-70
2023/01/29 09:08:40;;;;;;;15.73;6.90;;;6.90;48.90;;;;;;6173075;28;20145;-67
2023/01/29 09:11:41;;;;;;;15.70;6.22;;;7.00;48.80;;;;;;6173753;28;20102;-69
2023/01/29 09:14:42;;;;;;;17.50;7.05;;;7.00;48.50;;;;;;6173748;28;20027;-71
2023/01/29 09:17:43;;;;;;;18.45;6.72;;;7.10;48.40;;;;;;6172105;28;20415;-68
2023/01/29 09:20:44;;;;;;;15.27;6.25;;;7.10;48.20;;;;;;6171833;28;20053;-67
2023/01/29 09:23:45;;;;;;;21.77;5.70;;;7.10;47.80;;;;;;6172091;28;20035;-66
2023/01/29 09:26:45;;;;;;;15.80;7.07;;;7.00;47.70;;;;;;6172228;28;20175;-66
2023/01/29 09:29:46;;;;;;;16.40;7.57;;;7.00;47.60;;;;;;6173139;28;20070;-68
2023/01/29 09:32:47;;;;;;;18.92;7.63;;;7.00;47.70;;;;;;6173097;28;20083;-72
2023/01/29 09:35:48;;;;;;;15.23;6.18;;;7.00;47.90;;;;;;6172088;28;20034;-69
2023/01/29 09:38:49;;;;;;;18.73;8.07;;;7.00;47.70;;;;;;6172927;28;20073;-67
2023/01/29 09:42:08;;;;;;;22.67;8.93;;;7.20;47.70;;;;;;6172981;28;20042;-67
2023/01/29 09:45:13;;;;;;;18.77;6.32;;;7.20;47.50;;;;;;6173060;28;20395;-67
2023/01/29 09:48:14;;;;;;;18.80;8.35;;;7.20;47.30;;;;;;6172914;28;20044;-67
2023/01/29 09:51:29;;;;;;;22.00;8.88;;;7.30;47.40;;;;;;6172931;28;20023;-68
2023/01/29 09:54:43;;;;;;;22.33;10.35;;;7.30;47.60;;;;;;6172561;28;20099;-67
2023/01/29 09:57:58;;;;;;;30.05;9.23;;;7.40;47.60;;;;;;6172309;28;20035;-69
2023/01/29 10:01:14;;;;;;;26.10;8.38;;;7.70;47.70;;;;;;6171720;28;20544;-71
2023/01/29 10:04:31;;;;;;;20.52;8.07;;;7.80;47.50;;;;;;6171691;28;20456;-68
2023/01/29 10:08:02;;;;;;;25.35;9.85;;;7.80;47.40;;;;;;6170652;28;20023;-67
2023/01/29 10:11:17;;;;;;;29.95;9.43;;;7.80;47.50;;;;;;6172605;28;20042;-67
2023/01/29 10:14:36;;;;;;;30.85;9.32;;;7.80;47.70;;;;;;6171358;28;20038;-68
2023/01/29 10:17:55;;;;;;;30.73;10.95;;;7.90;47.90;;;;;;6172236;28;20027;-68
2023/01/29 10:21:28;;;;;;;28.05;10.55;;;8.00;48.00;;;;;;6172390;28;20544;-67
2023/01/29 10:25:05;;;;;;;24.00;10.35;;;8.10;48.00;;;;;;6155105;28;20089;-67
2023/01/29 10:28:16;;;;;;;30.02;10.88;;;8.10;48.00;;;;;;6215687;28;20045;-67
2023/01/29 10:31:33;;;;;;;24.05;10.93;;;8.10;48.10;;;;;;6221245;28;20092;-68
2023/01/29 10:34:40;;;;;;;18.20;7.00;;;8.20;48.20;;;;;;6211535;28;20122;-69
2023/01/29 10:37:42;;;;;;;30.15;9.43;;;8.30;48.10;;;;;;6183600;28;20344;-66
2023/01/29 10:41:06;;;;;;;32.90;10.48;;;8.40;48.00;;;;;;6205148;28;20163;-67
2023/01/29 10:44:16;;;;;;;26.02;11.68;;;8.40;47.80;;;;;;6222727;28;20033;-68
2023/01/29 10:47:39;;;;;;;30.40;10.13;;;8.50;47.80;;;;;;6204960;28;20038;-66
2023/01/29 10:50:59;;;;;;;30.60;12.52;;;8.60;47.60;;;;;;6221062;28;20459;-66
2023/01/29 10:54:22;;;;;;;32.08;11.63;;;8.60;47.20;;;;;;6221283;28;20097;-66
2023/01/29 10:57:34;;;;;;;20.58;8.95;;;8.70;47.10;;;;;;6221001;28;20037;-68
2023/01/29 11:00:40;;;;;;;20.08;9.52;;;8.70;46.90;;;;;;6204551;28;20105;-67
2023/01/29 11:03:41;;;;;;;23.90;10.43;;;8.80;46.90;;;;;;6199921;28;20062;-68
2023/01/29 11:06:42;;;;;;;33.53;11.07;;;9.00;46.70;;;;;;6181983;28;20051;-68
2023/01/29 11:09:55;;;;;;;31.90;9.38;;;9.00;46.10;;;;;;6172015;28;20356;-66
2023/01/29 11:12:57;;;;;;;20.80;9.20;;;9.20;45.70;;;;;;6181267;28;20034;-65
2023/01/29 11:15:58;;;;;;;18.30;7.85;;;9.40;45.20;;;;;;6183465;28;20033;-67
2023/01/29 11:19:02;;;;;;;20.23;7.72;;;9.50;45.00;;;;;;6172850;28;20034;-68
2023/01/29 11:22:03;;;;;;;19.02;6.95;;;9.50;44.70;;;;;;6170248;28;20121;-67
2023/01/29 11:25:19;;;;;;;16.95;7.72;;;9.50;44.30;;;;;;6170960;28;20497;-68
2023/01/29 11:28:40;;;;;;;24.38;7.75;;;9.60;44.40;;;;;;6170745;28;20023;-68
2023/01/29 11:31:41;;;;;;;36.17;12.50;;;9.60;44.30;;;;;;6170579;28;20434;-67
2023/01/29 11:35:03;;;;;;;24.25;9.55;;;9.70;44.20;;;;;;6171030;28;20062;-66
2023/01/29 11:38:20;;;;;;;24.85;9.25;;;9.70;44.00;;;;;;6170190;28;20453;-66
2023/01/29 11:41:23;;;;;;;18.02;7.30;;;9.70;43.90;;;;;;6170973;28;20027;-67
2023/01/29 11:44:28;;;;;;;27.83;9.55;;;9.70;43.90;;;;;;6169290;28;20038;-67
2023/01/29 11:47:29;;;;;;;18.23;9.48;;;9.80;43.60;;;;;;6170638;28;20317;-67
2023/01/29 11:50:32;;;;;;;21.67;8.27;;;9.80;43.40;;;;;;6169186;28;20479;-66
2023/01/29 11:53:37;;;;;;;28.77;9.02;;;9.70;43.20;;;;;;6169314;28;20027;-67
2023/01/29 11:56:43;;;;;;;19.95;7.50;;;9.60;43.20;;;;;;6170796;28;20081;-68
2023/01/29 11:59:49;;;;;;;25.15;8.68;;;9.60;43.40;;;;;;6170671;28;20049;-67
2023/01/29 12:02:55;;;;;;;26.42;9.00;;;9.70;44.20;;;;;;6170695;28;20336;-67
2023/01/29 12:05:58;;;;;;;21.67;8.05;;;9.70;43.40;;;;;;6169282;28;20122;-67
2023/01/29 12:09:02;;;;;;;29.75;11.32;;;9.80;43.10;;;;;;6168900;28;20023;-68
2023/01/29 12:12:26;;;;;;;21.27;9.48;;;9.80;43.10;;;;;;6191790;28;20036;-69
2023/01/29 12:15:27;;;;;;;25.90;8.45;;;9.90;43.00;;;;;;6271584;28;20047;-67
2023/01/29 12:18:39;;;;;;;24.65;9.32;;;9.90;42.80;;;;;;6271430;28;20101;-68
2023/01/29 12:21:59;;;;;;;18.38;7.15;;;10.00;42.80;;;;;;6270385;28;20068;-67
2023/01/29 12:25:19;;;;;;;20.80;9.20;;;10.10;42.40;;;;;;6253597;28;20053;-66
2023/01/29 12:28:46;;;;;;;26.52;9.65;;;10.10;42.40;;;;;;6271009;28;20100;-69
2023/01/29 12:32:05;;;;;;;19.15;9.52;;;10.10;42.20;;;;;;6269194;28;20021;-67
2023/01/29 12:35:19;;;;;;;33.30;12.75;;;10.10;42.20;;;;;;6271306;28;20041;-67
2023/01/29 12:38:22;;;;;;;22.88;9.70;;;10.10;42.00;;;;;;6270767;28;20137;-68
2023/01/29 12:41:35;;;;;;;26.60;9.32;;;10.10;42.10;;;;;;6270029;28;20033;-68
2023/01/29 12:44:47;;;;;;;24.50;8.52;;;10.20;42.20;;;;;;6214796;28;20465;-68
2023/01/29 12:47:55;;;;;;;24.20;8.45;;;10.20;42.10;;;;;;6169948;28;20031;-68
2023/01/29 12:51:02;;;;;;;;;;;10.20;42.10;;;;;;6169601;28;20072;-65
2023/01/29 12:54:10;;;;;;;22.10;9.63;;;10.20;41.80;;;;;;6170125;28;19932;-66
2023/01/29 12:57:43;;;;;;;19.85;8.50;;;10.20;41.70;;;;;;6168978;28;20076;-68
2023/01/29 13:00:47;;;;;;;19.73;8.25;;;10.20;41.70;;;;;;6240804;28;20080;-66
2023/01/29 13:04:09;;;;;;;18.73;8.52;;;10.20;41.70;;;;;;6242974;28;20095;-69
2023/01/29 13:07:13;;;;;;;21.63;8.90;;;10.10;41.10;;;;;;6243249;28;20469;-67
2023/01/29 13:10:18;;;;;;;24.55;10.27;;;10.10;41.30;;;;;;6242876;28;20504;-67
2023/01/29 13:13:35;;;;;;;21.13;8.55;;;10.10;41.50;;;;;;6242765;28;20034;-68
2023/01/29 13:16:41;;;;;;;20.10;9.30;;;10.10;41.30;;;;;;6243829;28;20042;-69
2023/01/29 13:19:46;;;;;;;15.82;7.20;;;10.00;40.90;;;;;;6243647;28;20044;-68
2023/01/29 13:22:50;;;;;;;18.88;8.68;;;10.00;40.90;;;;;;6243193;28;20128;-67
2023/01/29 13:25:52;;;;;;;17.55;8.05;;;10.00;40.90;;;;;;6243660;28;20038;-67
2023/01/29 13:28:53;;;;;;;19.63;8.40;;;9.90;41.00;;;;;;6244994;28;20608;-68
2023/01/29 13:31:57;;;;;;;16.05;6.63;;;10.00;41.00;;;;;;6230805;28;20116;-67
2023/01/29 13:35:02;;;;;;;16.77;8.30;;;10.00;40.90;;;;;;6254068;28;20033;-66
2023/01/29 13:38:03;;;;;;;19.35;8.23;;;10.00;40.50;;;;;;6213050;28;20050;-68
2023/01/29 13:41:07;;;;;;;22.15;8.23;;;9.90;40.40;;;;;;6247655;28;20024;-69
2023/01/29 13:44:20;;;;;;;20.02;7.72;;;9.90;40.60;;;;;;6306218;28;20040;-69
2023/01/29 13:47:29;;;;;;;19.05;8.80;;;9.90;40.80;;;;;;6251037;28;20031;-69
2023/01/29 13:50:40;;;;;;;15.93;7.15;;;10.00;40.70;;;;;;6175555;28;20118;-67
2023/01/29 13:53:51;;;;;;;20.88;8.90;;;10.00;40.30;;;;;;6174055;28;20436;-66
2023/01/29 13:56:58;;;;;;;21.55;7.35;;;9.90;40.10;;;;;;6173904;28;20083;-70
2023/01/29 13:59:59;;;;;;;18.88;8.40;;;9.90;40.00;;;;;;6173364;28;20030;-70
2023/01/29 14:03:00;;;;;;;20.17;7.75;;;9.80;40.00;;;;;;6174653;28;20027;-69
2023/01/29 14:06:01;;;;;;;20.80;7.35;;;9.80;39.90;;;;;;6174032;28;20034;-68
2023/01/29 14:09:03;;;;;;;19.25;6.95;;;9.80;40.00;;;;;;6172975;28;20027;-69
2023/01/29 14:12:24;;;;;;;19.25;6.82;;;9.80;39.80;;;;;;6173949;28;20038;-68
2023/01/29 14:15:27;;;;;;;17.38;6.95;;;9.70;39.70;;;;;;6174098;28;20031;-67
2023/01/29 14:18:30;;;;;;;15.90;7.05;;;9.70;39.70;;;;;;6172254;28;20038;-68
2023/01/29 14:21:33;;;;;;;23.92;7.93;;;9.80;39.80;;;;;;6173241;28;20042;-67
2023/01/29 14:24:34;;;;;;;21.63;9.20;;;9.80;39.80;;;;;;6171181;28;20061;-67
2023/01/29 14:27:36;;;;;;;18.45;7.82;;;9.80;39.90;;;;;;6171472;28;20031;-68
2023/01/29 14:30:39;;;;;;;19.65;7.38;;;9.80;39.70;;;;;;6287264;23;20045;-68
2023/01/29 14:33:40;;;;;;;17.52;7.45;;;9.80;39.60;;;;;;6257267;28;20158;-69
2023/01/29 14:36:43;;;;;;;14.80;6.20;;;9.50;39.70;;;;;;6257592;28;20029;-68
2023/01/29 14:39:54;;;;;;;14.70;6.90;;;9.70;40.10;;;;;;6274905;28;20036;-70
2023/01/29 14:43:07;;;;;;;17.00;8.25;;;9.70;40.10;;;;;;6255886;28;20037;-68
2023/01/29 14:46:34;;;;;;;18.67;7.45;;;9.70;40.00;;;;;;6239282;28;20052;-69
2023/01/29 14:49:58;;;;;;;19.90;8.68;;;9.60;39.90;;;;;;6238889;28;20029;-68
2023/01/29 14:53:05;;;;;;;18.05;6.72;;;9.50;40.70;;;;;;6239500;28;20187;-69
2023/01/29 14:56:28;;;;;;;15.00;7.07;;;9.40;40.00;;;;;;6239172;28;20029;-70
2023/01/29 14:59:37;;;;;;;17.13;7.18;;;9.40;40.20;;;;;;6237531;28;20035;-68
2023/01/29 15:02:44;;;;;;;17.23;7.07;;;9.30;40.40;;;;;;6248004;28;20159;-67
2023/01/29 15:05:48;;;;;;;27.77;9.73;;;9.30;40.50;;;;;;6231976;28;20029;-69
2023/01/29 15:09:09;;;;;;;22.23;9.27;;;9.30;40.40;;;;;;6247688;28;20029;-66
2023/01/29 15:12:31;;;;;;;24.58;9.10;;;9.20;40.50;;;;;;6208361;28;20042;-69
2023/01/29 15:15:53;;;;;;;20.67;8.68;;;9.10;40.70;;;;;;6215472;28;20029;-69
2023/01/29 15:19:03;;;;;;;16.48;8.27;;;9.10;40.80;;;;;;6247782;28;20486;-69
2023/01/29 15:22:28;;;;;;;23.08;8.30;;;9.10;40.90;;;;;;6214464;28;20033;-70
2023/01/29 15:25:48;;;;;;;22.52;9.18;;;9.10;41.00;;;;;;6215934;28;20043;-68
2023/01/29 15:28:58;;;;;;;21.17;9.32;;;9.10;40.90;;;;;;6230856;28;20029;-68
2023/01/29 15:36:28;;;;;;;17.42;8.40;;;9.00;41.10;;;;;;6054938;29;20049;-70
2023/01/29 15:43:56;;;;;;;24.48;7.88;;;8.90;41.50;;;;;;5897654;30;20444;-69
2023/01/29 15:47:00;;;;;;;18.98;8.23;;;8.90;41.50;;;;;;5882901;30;20048;-68
2023/01/29 15:50:04;;;;;;;18.45;8.95;;;8.80;41.70;;;;;;5897447;30;20028;-66
2023/01/29 15:53:12;;;;;;;18.80;9.07;;;8.70;41.80;;;;;;5880899;30;20036;-68
2023/01/29 15:56:21;;;;;;;22.05;8.82;;;8.70;41.90;;;;;;5875129;30;20037;-70
2023/01/29 15:59:26;;;;;;;19.85;8.00;;;8.60;42.00;;;;;;5874781;30;20090;-69
2023/01/29 16:02:38;;;;;;;28.58;9.63;;;8.60;42.10;;;;;;5876016;30;20565;-67
2023/01/29 16:05:40;;;;;;;24.30;10.60;;;8.50;42.30;;;;;;5874833;30;20049;-67
2023/01/29 16:08:46;;;;;;;22.05;9.65;;;8.40;42.40;;;;;;5877507;30;20042;-70
2023/01/29 16:11:49;;;;;;;20.88;9.75;;;8.40;42.60;;;;;;5931258;29;20038;-67
2023/01/29 16:14:51;;;;;;;29.38;11.27;;;8.40;42.80;;;;;;6036421;29;20100;-69
2023/01/29 16:17:52;;;;;;;26.65;10.40;;;8.40;42.90;;;;;;6016308;29;20041;-66
2023/01/29 16:20:55;;;;;;;26.38;9.38;;;8.40;43.00;;;;;;6213096;28;20496;-68
2023/01/29 16:24:01;;;;;;;22.80;8.88;;;8.30;43.10;;;;;;6271354;28;20505;-69
2023/01/29 16:27:10;;;;;;;20.85;8.85;;;8.30;43.30;;;;;;6271766;28;20060;-67
2023/01/29 16:30:16;;;;;;;24.90;9.68;;;8.30;43.30;;;;;;6253166;28;20124;-67
2023/01/29 16:33:18;;;;;;;19.95;9.07;;;8.30;43.40;;;;;;6271020;28;20545;-67
2023/01/29 16:36:25;;;;;;;24.70;8.70;;;8.30;43.60;;;;;;6271020;28;20083;-66
2023/01/29 16:39:31;;;;;;;21.45;8.55;;;8.20;43.70;;;;;;6252978;28;20033;-70
2023/01/29 16:42:34;;;;;;;27.02;10.10;;;8.20;43.90;;;;;;6272067;28;20524;-69
2023/01/29 16:45:35;;;;;;;22.45;8.73;;;8.10;44.10;;;;;;6270902;28;20025;-69
2023/01/29 16:49:38;;;;;;;20.30;8.40;;;8.10;44.40;;;;;;6270504;28;20112;-68
2023/01/29 16:53:12;;;;;;;20.83;8.52;;;8.00;44.60;;;;;;6075379;29;20095;-68
2023/01/29 16:56:13;;;;;;;25.45;9.38;;;8.00;44.80;;;;;;6082223;29;20040;-69